Excelsior, Minnesota
Current Conditions -  °F | °C
As of 11:53 PM on Tuesday 21 Oct 2014 (Local Time) from KFCM Reporting Station
Clear Clear  
Wind Chill:   Ceiling: Unl
Heat Index:   Visibility: 10mi
Dew Point:   Wind: 12mph
Humidity: 71%   Direction: 130°SE
Pressure: 30.15"   Gusts: NA
Location:  44.9°N, 93.57°W
Report Text: KFCM 220453Z AUTO 13010KT 10SM CLR 08/03 A3015 RMK AO2 SLP215 T00830033
Loading
Personal Weather Stations






























Interactive Weather Map
Tropical Storm Tracking
New forecast layout! Learn more

10-Day Weather Forecast

Advertisements
Track Severe Weather on mobile